Time;durP1;ratioP1;P1;durP2;ratioP2;P2;SDS_P1;SDS_P2;PMS_P1;PMS_P2;Temp;Humidity;BMP_temperature;BMP_pressure;BME280_temperature;BME280_humidity;BME280_pressure;Samples;Min_cycle;Max_cycle;Signal;HPM_P1;HPM_P2
2021/08/28 00:00:13;;;;;;;4.78;3.08;;;;;;;12.95;100.00;101422.44;6224970;28;20054;-81
2021/08/28 00:03:15;;;;;;;4.45;2.60;;;;;;;12.98;100.00;101424.03;6224911;28;20057;-81
2021/08/28 00:06:17;;;;;;;4.65;3.00;;;;;;;12.99;100.00;101428.38;6224565;28;20046;-81
2021/08/28 00:09:18;;;;;;;4.35;2.90;;;;;;;12.98;100.00;101426.69;6224827;28;20045;-81
2021/08/28 00:12:19;;;;;;;6.75;3.60;;;;;;;12.97;100.00;101423.19;6224670;28;20053;-81
2021/08/28 00:15:21;;;;;;;4.22;2.58;;;;;;;13.01;100.00;101421.25;6224259;28;20049;-81
2021/08/28 00:18:23;;;;;;;4.55;2.70;;;;;;;12.99;100.00;101420.47;6224532;28;20050;-81
2021/08/28 00:21:25;;;;;;;5.32;3.42;;;;;;;13.00;100.00;101416.91;6224791;28;20054;-81
2021/08/28 00:24:26;;;;;;;5.00;2.60;;;;;;;13.00;100.00;101416.91;6224231;28;20046;-81
2021/08/28 00:27:28;;;;;;;4.13;3.13;;;;;;;13.01;100.00;101416.81;6224301;28;20050;-81
2021/08/28 00:30:29;;;;;;;3.50;2.53;;;;;;;13.01;100.00;101421.25;6224370;28;20436;-81
2021/08/28 00:33:32;;;;;;;4.82;2.85;;;;;;;13.01;100.00;101421.25;6223876;28;20520;-81
2021/08/28 00:36:33;;;;;;;4.15;2.53;;;;;;;13.00;100.00;101415.13;6224264;28;20489;-81
2021/08/28 00:39:35;;;;;;;4.50;2.75;;;;;;;13.00;100.00;101428.31;6224212;28;20054;-81
2021/08/28 00:42:46;;;;;;;3.88;2.47;;;;;;;13.03;100.00;101420.22;6224095;28;20421;-81
2021/08/28 00:45:47;;;;;;;5.72;2.83;;;;;;;13.01;100.00;101415.97;6223701;28;20057;-80
2021/08/28 00:48:50;;;;;;;4.22;2.92;;;;;;;12.99;100.00;101428.38;6224116;28;20494;-80
2021/08/28 00:51:51;;;;;;;4.70;3.38;;;;;;;13.01;100.00;101421.25;6224086;28;20050;-79
2021/08/28 00:54:53;;;;;;;4.63;3.00;;;;;;;13.00;100.00;101430.94;6222793;28;20163;-79
2021/08/28 00:57:55;;;;;;;4.72;2.92;;;;;;;12.99;100.00;101417.81;6223026;28;20453;-79
2021/08/28 01:01:01;;;;;;;8.45;3.25;;;;;;;12.98;100.00;101409.06;6239961;28;20042;-79
2021/08/28 01:04:07;;;;;;;5.60;2.53;;;;;;;13.02;100.00;101415.03;6232729;28;20057;-79
2021/08/28 01:07:14;;;;;;;3.58;2.90;;;;;;;12.99;100.00;101416.06;6248225;28;20056;-79
2021/08/28 01:10:20;;;;;;;4.55;2.65;;;;;;;13.02;100.00;101412.41;6247165;28;20416;-79
2021/08/28 01:13:24;;;;;;;8.32;3.58;;;;;;;13.01;100.00;101413.34;6234944;28;20519;-79
2021/08/28 01:16:28;;;;;;;3.33;2.55;;;;;;;13.01;100.00;101411.53;6247792;28;20436;-79
2021/08/28 01:19:42;;;;;;;3.72;2.75;;;;;;;13.02;100.00;101412.41;6247643;28;20454;-80
2021/08/28 01:22:43;;;;;;;5.13;3.25;;;;;;;13.00;100.00;101412.50;6247650;28;20432;-79
2021/08/28 01:25:46;;;;;;;5.10;3.03;;;;;;;13.02;100.00;101415.03;6234904;28;20053;-79
2021/08/28 01:28:51;;;;;;;3.95;2.50;;;;;;;13.02;100.00;101407.97;6223038;28;20057;-79
2021/08/28 01:31:55;;;;;;;3.88;3.03;;;;;;;13.03;100.00;101404.38;6222986;28;20056;-79
2021/08/28 01:34:59;;;;;;;4.55;3.05;;;;;;;12.98;100.00;101406.41;6223095;28;20050;-79
2021/08/28 01:38:02;;;;;;;4.95;3.05;;;;;;;12.95;100.00;101404.81;6222911;28;20065;-79
2021/08/28 01:41:03;;;;;;;4.57;2.90;;;;;;;12.97;100.00;101395.97;6223084;28;20489;-79
2021/08/28 01:44:08;;;;;;;4.55;2.90;;;;;;;12.95;100.00;101406.59;6222956;28;20065;-79
2021/08/28 01:47:11;;;;;;;3.88;2.40;;;;;;;12.92;100.00;101390.94;6224600;28;20042;-79
2021/08/28 01:50:17;;;;;;;4.53;2.25;;;;;;;12.89;100.00;101396.34;6239097;28;20050;-79
2021/08/28 01:53:19;;;;;;;6.40;2.20;;;;;;;12.86;100.00;101394.75;6247034;28;20072;-79
2021/08/28 01:56:20;;;;;;;3.78;2.30;;;;;;;12.86;100.00;101407.09;6246967;28;20420;-79
2021/08/28 01:59:22;;;;;;;3.33;2.05;;;;;;;12.85;100.00;101410.63;6247441;28;20053;-79
2021/08/28 02:02:24;;;;;;;3.47;1.98;;;;;;;12.82;100.00;101400.25;6246966;28;20045;-79
2021/08/28 02:05:27;;;;;;;4.47;2.72;;;;;;;12.81;100.00;101412.59;6246565;28;20046;-79
2021/08/28 02:08:35;;;;;;;3.88;2.55;;;;;;;12.80;100.00;101412.66;6247217;28;20053;-79
2021/08/28 02:11:44;;;;;;;3.53;2.40;;;;;;;12.78;100.00;101414.53;6247161;28;20049;-79
2021/08/28 02:15:00;;;;;;;3.53;2.10;;;;;;;12.74;100.00;101415.63;6247017;28;20056;-79
2021/08/28 02:18:12;;;;;;;4.53;2.83;;;;;;;12.64;100.00;101410.81;6247639;28;20045;-80
2021/08/28 02:21:15;;;;;;;3.28;2.38;;;;;;;12.68;100.00;101403.63;6246692;28;20064;-79
2021/08/28 02:24:20;;;;;;;4.13;3.08;;;;;;;12.69;100.00;101400.03;6246936;28;20183;-80
2021/08/28 02:27:29;;;;;;;4.50;2.40;;;;;;;12.72;100.00;101409.56;6247228;28;20045;-80
2021/08/28 02:30:31;;;;;;;5.85;2.83;;;;;;;12.57;100.00;101403.28;6247741;28;20045;-80
2021/08/28 02:33:36;;;;;;;6.18;3.17;;;;;;;12.55;100.00;101395.47;6246778;28;20428;-80
2021/08/28 02:36:39;;;;;;;7.57;4.07;;;;;;;12.59;100.00;101389.13;6246944;28;20052;-79
2021/08/28 02:39:44;;;;;;;4.50;2.47;;;;;;;12.65;100.00;101388.78;6247030;28;20046;-81
2021/08/28 02:42:45;;;;;;;4.03;2.65;;;;;;;12.69;100.00;101390.34;6246970;28;20049;-79
2021/08/28 02:45:49;;;;;;;5.40;2.83;;;;;;;12.69;100.00;101392.13;6246468;28;20068;-80
2021/08/28 02:48:53;;;;;;;7.22;3.78;;;;;;;12.71;100.00;101390.25;6246655;28;20056;-79
2021/08/28 02:51:54;;;;;;;4.90;3.15;;;;;;;12.74;100.00;101392.75;6246848;28;20425;-80
2021/08/28 02:55:00;;;;;;;6.70;3.53;;;;;;;12.77;100.00;101389.09;6246141;28;20056;-80
2021/08/28 02:58:02;;;;;;;3.67;3.20;;;;;;;12.75;100.00;101393.59;6246809;28;20052;-79
2021/08/28 03:01:06;;;;;;;4.93;3.17;;;;;;;12.71;100.00;101398.16;6246803;28;20214;-80
2021/08/28 03:04:10;;;;;;;5.38;2.65;;;;;;;12.69;100.00;101385.06;6246636;28;20049;-80
2021/08/28 03:07:14;;;;;;;6.15;3.25;;;;;;;12.72;100.00;101384.06;6246760;28;20046;-80
2021/08/28 03:10:16;;;;;;;5.03;2.55;;;;;;;12.74;100.00;101386.63;6246993;28;20056;-81
2021/08/28 03:13:18;;;;;;;6.22;3.13;;;;;;;12.75;100.00;101375.97;6246585;28;20045;-81
2021/08/28 03:16:21;;;;;;;5.45;2.90;;;;;;;12.74;100.00;101374.28;6246348;28;20045;-80
2021/08/28 03:19:26;;;;;;;4.15;2.75;;;;;;;12.74;100.00;101373.44;6250768;28;20049;-80
2021/08/28 03:22:29;;;;;;;4.05;2.78;;;;;;;12.73;100.00;101366.44;6250493;28;20092;-80
2021/08/28 03:25:31;;;;;;;3.20;2.25;;;;;;;12.74;100.00;101366.38;6250427;28;20484;-80
2021/08/28 03:28:34;;;;;;;6.18;3.72;;;;;;;12.72;100.00;101365.59;6250601;28;20089;-81
2021/08/28 03:31:36;;;;;;;5.13;3.08;;;;;;;12.69;100.00;101363.97;6250660;28;20049;-81
2021/08/28 03:34:39;;;;;;;4.68;3.05;;;;;;;12.70;100.00;101368.31;6249852;28;20056;-80
2021/08/28 03:37:43;;;;;;;5.85;3.72;;;;;;;12.66;100.00;101364.13;6250065;28;20050;-79
2021/08/28 03:40:45;;;;;;;6.00;3.60;;;;;;;12.65;100.00;101369.47;6248116;28;20050;-80
2021/08/28 03:43:47;;;;;;;7.13;4.07;;;;;;;12.62;100.00;101374.91;6225756;28;20069;-80
2021/08/28 03:46:50;;;;;;;8.32;4.20;;;;;;;12.67;100.00;101368.50;6225374;28;20053;-81
2021/08/28 03:49:53;;;;;;;5.32;3.17;;;;;;;12.72;100.00;101370.88;6225336;28;20387;-80
2021/08/28 03:52:54;;;;;;;4.35;3.25;;;;;;;12.73;100.00;101367.31;6224991;28;20038;-80
2021/08/28 03:55:56;;;;;;;5.70;3.55;;;;;;;12.74;100.00;101374.28;6224729;28;20045;-80
2021/08/28 03:58:57;;;;;;;7.70;4.30;;;;;;;12.74;100.00;101373.44;6225048;28;20060;-80
2021/08/28 04:01:59;;;;;;;6.93;4.20;;;;;;;12.73;100.00;101375.22;6225056;28;20053;-81
2021/08/28 04:05:01;;;;;;;6.45;3.90;;;;;;;12.73;100.00;101377.84;6225112;28;20054;-80
2021/08/28 04:08:03;;;;;;;7.72;4.32;;;;;;;12.69;100.00;101366.59;6224186;28;20052;-80
2021/08/28 04:11:04;;;;;;;12.13;5.18;;;;;;;12.64;100.00;101376.53;6223824;28;20053;-81
2021/08/28 04:14:06;;;;;;;8.00;4.13;;;;;;;12.69;100.00;101378.94;6224438;28;20053;-80
2021/08/28 04:17:07;;;;;;;9.00;5.15;;;;;;;12.74;100.00;101363.72;6224832;28;20046;-80
2021/08/28 04:20:11;;;;;;;10.20;5.03;;;;;;;12.77;100.00;101360.09;6224455;28;20053;-80
2021/08/28 04:23:12;;;;;;;9.40;4.90;;;;;;;12.76;100.00;101374.19;6224387;28;20421;-80
2021/08/28 04:26:14;;;;;;;8.20;5.15;;;;;;;12.76;100.00;101369.75;6224526;28;20429;-81
2021/08/28 04:29:15;;;;;;;8.98;4.93;;;;;;;12.78;100.00;101369.69;6224382;28;20511;-82
2021/08/28 04:32:17;;;;;;;8.63;5.35;;;;;;;12.81;100.00;101374.78;6224472;28;20053;-81
2021/08/28 04:35:19;;;;;;;9.00;4.28;;;;;;;12.82;100.00;101382.66;6224050;28;20054;-82
2021/08/28 04:38:21;;;;;;;12.48;5.60;;;;;;;12.90;100.00;101385.75;6224537;28;20042;-81
2021/08/28 04:41:22;;;;;;;9.63;5.20;;;;;;;12.95;100.00;101393.41;6224027;28;20046;-81
2021/08/28 04:44:24;;;;;;;8.45;5.00;;;;;;;12.96;100.00;101387.19;6223835;28;20053;-81
2021/08/28 04:47:25;;;;;;;11.25;5.47;;;;;;;12.95;100.00;101385.50;6275072;23;20069;-77
2021/08/28 04:50:28;;;;;;;10.88;4.85;;;;;;;12.96;100.00;101384.56;6220318;28;20073;-78
2021/08/28 04:53:30;;;;;;;10.60;5.25;;;;;;;12.96;100.00;101389.84;6199233;28;20057;-77
2021/08/28 04:56:31;;;;;;;10.13;5.53;;;;;;;12.94;100.00;101397.84;6217080;28;20049;-78
2021/08/28 04:59:32;;;;;;;11.98;5.32;;;;;;;12.97;100.00;101391.53;6223695;28;20057;-78
2021/08/28 05:02:34;;;;;;;11.48;4.57;;;;;;;13.00;100.00;101394.03;6223562;28;20081;-78
2021/08/28 05:05:36;;;;;;;14.68;5.25;;;;;;;13.03;100.00;101385.91;6223182;28;20054;-77
2021/08/28 05:08:38;;;;;;;8.88;5.45;;;;;;;13.03;100.00;101398.25;6223461;28;20053;-77
2021/08/28 05:11:39;;;;;;;10.02;5.28;;;;;;;13.05;100.00;101399.06;6223563;28;20050;-77
2021/08/28 05:14:40;;;;;;;12.35;5.95;;;;;;;13.08;100.00;101401.50;6223062;28;20050;-77
2021/08/28 05:17:42;;;;;;;12.65;6.40;;;;;;;13.05;100.00;101405.19;6223110;28;20564;-77
2021/08/28 05:20:45;;;;;;;10.48;5.45;;;;;;;13.04;100.00;101408.75;6222681;28;20045;-77
2021/08/28 05:23:46;;;;;;;9.73;5.45;;;;;;;13.05;100.00;101415.72;6221820;28;20444;-77
2021/08/28 05:26:47;;;;;;;10.50;5.82;;;;;;;13.03;100.00;101414.09;6222439;28;20056;-77
2021/08/28 05:29:49;;;;;;;9.35;5.50;;;;;;;13.06;100.00;101421.84;6222567;28;20054;-78
2021/08/28 05:32:50;;;;;;;9.25;4.72;;;;;;;13.06;100.00;101422.72;6222759;28;20061;-77
2021/08/28 05:35:53;;;;;;;8.95;4.78;;;;;;;13.12;100.00;101429.44;6221992;28;20049;-77
2021/08/28 05:38:55;;;;;;;10.75;5.70;;;;;;;13.18;100.00;101431.78;6221965;28;20049;-78
2021/08/28 05:41:57;;;;;;;8.95;4.60;;;;;;;13.17;100.00;101433.56;6221446;28;20603;-77
2021/08/28 05:44:58;;;;;;;11.18;5.28;;;;;;;13.23;100.00;101437.69;6222522;28;20057;-78
2021/08/28 05:47:59;;;;;;;10.55;5.53;;;;;;;13.25;100.00;101441.09;6222418;28;20061;-77
2021/08/28 05:51:02;;;;;;;8.60;4.85;;;;;;;13.29;100.00;101447.91;6222825;28;20060;-77
2021/08/28 05:54:04;;;;;;;9.77;5.05;;;;;;;13.32;100.00;101441.63;6222241;28;20061;-78
2021/08/28 05:57:05;;;;;;;10.48;4.43;;;;;;;13.34;100.00;101442.38;6222153;28;20050;-77
2021/08/28 06:00:08;;;;;;;8.15;4.95;;;;;;;13.30;100.00;101436.41;6222606;28;20057;-78
2021/08/28 06:03:09;;;;;;;9.82;5.05;;;;;;;13.31;100.00;101434.66;6222436;28;20053;-77
2021/08/28 06:06:12;;;;;;;12.35;4.65;;;;;;;13.33;100.00;101440.69;6222207;28;20053;-77
2021/08/28 06:09:13;;;;;;;10.85;5.40;;;;;;;13.35;100.00;101436.16;6222279;28;20054;-77
2021/08/28 06:12:14;;;;;;;17.40;5.88;;;;;;;13.37;100.00;101437.78;6222402;28;20054;-77
2021/08/28 06:15:16;;;;;;;12.75;6.32;;;;;;;13.39;100.00;101442.97;6222114;28;20050;-77
2021/08/28 06:18:17;;;;;;;9.27;5.22;;;;;;;13.38;100.00;101436.84;6222084;28;20386;-77
2021/08/28 06:21:20;;;;;;;12.35;6.18;;;;;;;13.34;100.00;101440.59;6222462;28;20053;-77
2021/08/28 06:24:21;;;;;;;11.50;5.80;;;;;;;13.36;100.00;101436.09;6221912;28;20077;-77
2021/08/28 06:27:22;;;;;;;11.10;5.30;;;;;;;13.32;100.00;101437.19;6220790;28;20049;-76
2021/08/28 06:30:24;;;;;;;11.73;6.03;;;;;;;13.31;100.00;101446.06;6220093;28;20052;-77
2021/08/28 06:33:25;;;;;;;10.75;5.55;;;;;;;13.33;100.00;101448.59;6220189;28;20050;-77
2021/08/28 06:36:28;;;;;;;10.40;5.57;;;;;;;13.32;100.00;101455.66;6220194;28;20046;-78
2021/08/28 06:39:29;;;;;;;9.52;4.50;;;;;;;13.28;100.00;101448.00;6220470;28;20041;-77
2021/08/28 06:42:30;;;;;;;8.43;4.50;;;;;;;13.31;100.00;101448.69;6220353;28;20054;-78
2021/08/28 06:45:32;;;;;;;8.68;4.18;;;;;;;13.38;100.00;101452.69;6219957;28;20421;-77
2021/08/28 06:48:33;;;;;;;11.35;5.30;;;;;;;13.35;100.00;101465.19;6221647;28;20054;-77
2021/08/28 06:51:36;;;;;;;7.28;3.85;;;;;;;13.31;100.00;101467.19;6223391;28;20506;-78
2021/08/28 06:54:37;;;;;;;8.27;3.92;;;;;;;13.31;100.00;101467.19;6226321;28;20050;-77
2021/08/28 06:57:39;;;;;;;10.43;5.43;;;;;;;13.35;100.00;101458.16;6226452;28;20046;-78
2021/08/28 07:00:40;;;;;;;11.13;4.47;;;;;;;13.43;100.00;101460.38;6233621;28;20045;-77
2021/08/28 07:03:41;;;;;;;11.32;4.43;;;;;;;13.43;100.00;101463.84;6238605;28;20068;-78
2021/08/28 07:06:44;;;;;;;6.55;3.78;;;;;;;13.36;100.00;101459.00;6240264;28;20485;-77
2021/08/28 07:09:45;;;;;;;12.38;4.72;;;;;;;13.38;100.00;101465.03;6238088;28;20056;-78
2021/08/28 07:12:47;;;;;;;7.03;4.43;;;;;;;13.41;100.00;101468.38;6235471;28;20050;-77
2021/08/28 07:15:48;;;;;;;9.93;4.50;;;;;;;13.37;100.00;101474.75;6225624;28;20050;-77
2021/08/28 07:18:49;;;;;;;11.13;4.45;;;;;;;13.37;100.00;101479.19;6226031;28;20069;-78
2021/08/28 07:21:52;;;;;;;9.65;4.07;;;;;;;13.41;100.00;101488.66;6239501;28;20045;-78
2021/08/28 07:24:53;;;;;;;6.90;3.67;;;;;;;13.42;100.00;101490.34;6225161;28;20046;-77
2021/08/28 07:27:55;;;;;;;8.10;3.53;;;;;;;13.45;100.00;101485.75;6225403;28;20065;-77
2021/08/28 07:30:56;;;;;;;5.45;3.30;;;;;;;13.55;100.00;101494.03;6225743;28;20461;-77
2021/08/28 07:33:57;;;;;;;6.28;3.67;;;;;;;13.61;100.00;101491.06;6225227;28;20054;-77
2021/08/28 07:37:00;;;;;;;6.05;3.30;;;;;;;13.61;100.00;101495.50;6225241;28;20421;-78
2021/08/28 07:40:02;;;;;;;9.48;3.55;;;;;;;13.54;100.00;101492.34;6241382;28;20428;-77
2021/08/28 07:43:04;;;;;;;5.22;2.78;;;;;;;13.56;100.00;101498.38;6249637;28;20417;-77
2021/08/28 07:46:05;;;;;;;5.65;2.92;;;;;;;13.60;100.00;101499.94;6249662;28;20049;-78
2021/08/28 07:49:06;;;;;;;4.93;2.92;;;;;;;13.65;100.00;101500.53;6250377;28;20061;-78
2021/08/28 07:52:09;;;;;;;6.80;3.78;;;;;;;13.66;100.00;101504.88;6249895;28;20053;-77
2021/08/28 07:55:13;;;;;;;5.50;3.15;;;;;;;13.67;100.00;101511.88;6249601;28;20049;-78
2021/08/28 07:58:14;;;;;;;4.93;2.90;;;;;;;13.66;100.00;101506.66;6249306;28;20053;-78
2021/08/28 08:01:16;;;;;;;6.35;3.20;;;;;;;13.71;100.00;101512.53;6249429;28;20053;-78
2021/08/28 08:04:17;;;;;;;3.75;2.55;;;;;;;13.63;100.00;101505.06;6248737;28;20057;-77
2021/08/28 08:07:20;;;;;;;4.57;2.78;;;;;;;13.67;100.00;101513.63;6249069;28;20527;-72
2021/08/28 08:10:21;;;;;;;4.10;2.55;;;;;;;13.71;100.00;101521.31;6249354;28;20049;-73
2021/08/28 08:13:23;;;;;;;3.88;2.67;;;;;;;13.74;100.00;101522.09;6248718;28;20489;-78
2021/08/28 08:16:24;;;;;;;3.97;2.33;;;;;;;13.79;100.00;101522.69;6248919;28;20049;-78
2021/08/28 08:19:25;;;;;;;3.78;2.58;;;;;;;13.83;100.00;101519.81;6248777;28;20047;-78
2021/08/28 08:22:28;;;;;;;3.90;2.58;;;;;;;13.82;100.00;101523.41;6250112;28;20046;-78
2021/08/28 08:25:29;;;;;;;4.57;2.40;;;;;;;13.79;100.00;101528.84;6248765;28;20056;-73
2021/08/28 08:28:31;;;;;;;6.82;2.90;;;;;;;13.81;100.00;101524.34;6248444;28;20057;-73
2021/08/28 08:31:32;;;;;;;3.63;2.35;;;;;;;13.87;100.00;101523.16;6248676;28;20049;-77
2021/08/28 08:34:33;;;;;;;4.90;3.03;;;;;;;13.94;100.00;101513.94;6248259;28;20072;-78
2021/08/28 08:37:36;;;;;;;2.85;2.05;;;;;;;14.00;100.00;101523.34;6248856;28;20081;-79
2021/08/28 08:40:37;;;;;;;4.40;2.72;;;;;;;14.00;100.00;101523.34;6227003;28;20049;-78
2021/08/28 08:43:39;;;;;;;4.50;2.70;;;;;;;14.06;100.00;101518.53;6223804;28;20050;-79
2021/08/28 08:46:42;;;;;;;4.63;2.60;;;;;;;14.17;100.00;101508.25;6219661;28;20107;-79
2021/08/28 08:49:44;;;;;;;4.28;2.88;;;;;;;14.26;100.00;101530.66;6219258;28;20517;-79
2021/08/28 08:52:49;;;;;;;6.00;3.83;;;;;;;14.35;100.00;101522.22;6222107;28;20050;-74
2021/08/28 08:55:52;;;;;;;4.88;3.00;;;;;;;14.43;100.00;101519.13;6218183;28;20064;-73
2021/08/28 08:58:54;;;;;;;5.03;3.30;;;;;;;14.52;100.00;101523.06;6222765;28;20041;-73
2021/08/28 09:01:55;;;;;;;6.40;3.22;;;;;;;14.56;100.00;101522.78;6221755;28;20053;-73
2021/08/28 09:04:56;;;;;;;7.47;4.53;;;;;;;14.49;100.00;101523.22;6221503;28;20513;-73
2021/08/28 09:07:59;;;;;;;4.90;3.50;;;;;;;14.46;100.00;101527.72;6223090;28;20053;-70
2021/08/28 09:11:01;;;;;;;6.93;3.85;;;;;;;14.50;100.00;101520.50;6223135;28;20058;-70
2021/08/28 09:14:16;;;;;;;5.47;3.70;;;;;;;14.50;100.00;101522.31;6222959;28;20512;-80
2021/08/28 09:17:21;;;;;;;6.93;4.07;;;;;;;14.57;100.00;101519.19;6221321;28;20416;-78
2021/08/28 09:20:24;;;;;;;8.70;4.15;;;;;;;14.74;100.00;101535.91;6222806;28;20062;-76
2021/08/28 09:23:27;;;;;;;6.53;4.30;;;;;;;14.75;100.00;101532.31;6223393;28;20054;-77
2021/08/28 09:26:30;;;;;;;5.15;3.92;;;;;;;14.78;100.00;101527.69;6222834;28;20521;-77
2021/08/28 09:29:32;;;;;;;6.15;4.10;;;;;;;14.79;100.00;101529.41;6222895;28;20046;-77
2021/08/28 09:32:35;;;;;;;6.38;3.67;;;;;;;14.85;100.00;101529.06;6222775;28;20058;-75
2021/08/28 09:35:39;;;;;;;5.88;3.67;;;;;;;14.91;100.00;101528.69;6222434;28;20417;-77
2021/08/28 09:38:42;;;;;;;6.15;4.20;;;;;;;15.02;100.00;101535.13;6219846;28;20497;-75
2021/08/28 09:41:43;;;;;;;7.25;4.28;;;;;;;15.06;100.00;101524.28;6222559;28;20100;-77
2021/08/28 09:44:46;;;;;;;4.68;2.95;;;;;;;15.07;100.00;101531.25;6222266;28;20049;-77
2021/08/28 09:47:48;;;;;;;6.38;3.03;;;;;;;15.01;100.00;101523.69;6223341;28;20045;-77
2021/08/28 09:50:50;;;;;;;3.97;2.80;;;;;;;15.01;100.00;101526.34;6222180;28;20448;-77
2021/08/28 09:54:00;;;;;;;9.13;3.75;;;;;;;15.01;100.00;101526.34;6222919;28;20050;-76
2021/08/28 09:57:02;;;;;;;6.47;3.92;;;;;;;14.95;100.00;101529.38;6222806;28;20176;-78
2021/08/28 10:00:07;;;;;;;5.40;3.20;;;;;;;14.90;100.00;101528.78;6229165;28;20500;-71
2021/08/28 10:03:09;;;;;;;5.55;3.05;;;;;;;14.92;100.00;101540.97;6216763;28;20057;-76
2021/08/28 10:06:10;;;;;;;23.92;7.50;;;;;;;14.97;100.00;101528.31;6227433;28;20060;-75
2021/08/28 10:09:14;;;;;;;4.88;3.28;;;;;;;14.92;100.00;101530.38;6239005;28;20054;-79
2021/08/28 10:12:19;;;;;;;6.93;3.03;;;;;;;14.93;100.00;101532.09;6247159;28;20049;-76
2021/08/28 10:15:22;;;;;;;5.57;3.38;;;;;;;15.00;100.00;101526.44;6228584;28;20042;-78
2021/08/28 10:18:24;;;;;;;6.45;3.67;;;;;;;15.06;100.00;101526.06;6225794;28;20172;-78
2021/08/28 10:21:25;;;;;;;6.93;3.80;;;;;;;15.20;100.00;101520.78;6223306;28;20046;-76
2021/08/28 10:24:28;;;;;;;4.00;2.80;;;;;;;15.35;100.00;101526.94;6220963;28;20053;-77
2021/08/28 10:27:29;;;;;;;8.60;3.95;;;;;;;15.31;100.00;101533.41;6224533;28;20426;-79
2021/08/28 10:30:31;;;;;;;4.25;2.97;;;;;;;15.37;100.00;101525.06;6226554;28;20049;-76
2021/08/28 10:33:33;;;;;;;5.88;3.42;;;;;;;15.49;100.00;101532.28;6226549;28;20046;-76
2021/08/28 10:36:35;;;;;;;6.38;3.80;;;;;;;15.48;100.00;101530.56;6226067;28;20046;-75
2021/08/28 10:39:40;;;;;;;4.03;2.72;;;;;;;15.46;100.00;101524.50;6228604;28;20049;-78
2021/08/28 10:42:42;;;;;;;8.27;3.58;;;;;;;15.40;100.00;101528.41;6231803;28;20056;-79
2021/08/28 10:48:53;;;;;;;5.68;3.72;;;;;;;15.37;100.00;101522.44;6244346;22;20093;-80
2021/08/28 10:51:55;;;;;;;5.35;3.22;;;;;;;15.37;100.00;101515.34;6213208;28;20050;-80
2021/08/28 10:55:03;;;;;;;4.93;3.33;;;;;;;15.41;100.00;101516.00;6201840;28;20132;-80
2021/08/28 10:58:13;;;;;;;5.15;3.05;;;;;;;15.42;100.00;101513.25;6201996;28;20046;-80
2021/08/28 11:01:18;;;;;;;5.55;2.97;;;;;;;15.49;100.00;101519.03;6202649;28;20520;-81
2021/08/28 11:04:40;;;;;;;6.70;3.47;;;;;;;15.70;100.00;101517.72;6202105;28;20046;-82
2021/08/28 11:07:42;;;;;;;6.75;3.05;;;;;;;15.97;100.00;101515.13;6210869;28;20314;-81
2021/08/28 11:11:18;;;;;;;5.03;2.42;;;;;;;16.16;100.00;101514.78;6209864;28;20509;-80
2021/08/28 11:14:43;;;;;;;7.07;2.50;;;;;;;16.24;100.00;101503.69;6200508;28;20061;-81
2021/08/28 11:17:47;;;;;;;3.83;2.13;;;;;;;16.37;100.00;101501.94;6200576;28;20054;-81
2021/08/28 11:20:52;;;;;;;3.90;2.47;;;;;;;16.64;100.00;101493.97;6200647;28;20755;-81
2021/08/28 11:23:53;;;;;;;3.17;2.22;;;;;;;16.78;100.00;101506.34;6198184;28;20051;-81
2021/08/28 11:26:58;;;;;;;3.97;1.90;;;;;;;16.69;100.00;101513.09;6201689;28;20513;-80
2021/08/28 11:29:59;;;;;;;3.55;2.05;;;;;;;16.59;100.00;101509.34;6202155;28;20050;-80
2021/08/28 11:33:01;;;;;;;2.78;1.80;;;;;;;16.73;100.00;101509.31;6201015;28;20050;-79
2021/08/28 11:36:06;;;;;;;3.85;2.22;;;;;;;16.83;100.00;101500.72;6201232;28;20051;-78
2021/08/28 11:39:24;;;;;;;5.60;2.58;;;;;;;16.71;100.00;101502.34;6200363;28;20049;-79
2021/08/28 11:42:27;;;;;;;3.42;1.77;;;;;;;16.72;100.00;101502.31;6204560;28;20050;-79
2021/08/28 11:45:32;;;;;;;5.05;2.58;;;;;;;16.79;100.00;101504.53;6214790;28;20050;-80
2021/08/28 11:48:35;;;;;;;4.30;2.40;;;;;;;16.72;100.00;101507.63;6216938;28;20085;-78
2021/08/28 11:51:37;;;;;;;2.25;1.58;;;;;;;16.61;100.00;101503.94;6226022;28;20053;-80
2021/08/28 11:54:39;;;;;;;2.30;1.52;;;;;;;16.64;100.00;101501.94;6215552;28;20049;-80
2021/08/28 11:57:42;;;;;;;2.92;1.35;;;;;;;16.90;100.00;101497.56;6201982;28;20058;-80
2021/08/28 12:00:43;;;;;;;1.60;1.00;;;;;;;17.27;100.00;101494.19;6207403;28;20053;-80
2021/08/28 12:03:44;;;;;;;2.53;1.48;;;;;;;17.60;100.00;101501.59;6216286;28;20050;-80
2021/08/28 12:06:52;;;;;;;2.67;1.40;;;;;;;17.91;100.00;101501.13;6225396;28;20060;-80
2021/08/28 12:09:59;;;;;;;1.83;1.13;;;;;;;18.34;100.00;101500.63;6225984;28;20057;-80
2021/08/28 12:13:04;;;;;;;2.85;1.35;;;;;;;18.25;100.00;101496.84;6222011;28;20046;-80
2021/08/28 12:16:05;;;;;;;2.55;1.27;;;;;;;18.07;100.00;101498.19;6205287;28;20050;-80
2021/08/28 12:19:08;;;;;;;3.53;1.40;;;;;;;17.79;100.00;101490.53;6199436;28;20057;-80
2021/08/28 12:22:10;;;;;;;1.42;0.80;;;;;;;17.61;100.00;101496.16;6200517;28;20053;-79
2021/08/28 12:25:13;;;;;;;0.65;0.65;;;;;;;17.34;100.00;101501.59;6200148;28;20589;-79
2021/08/28 12:28:16;;;;;;;1.35;0.70;;;;;;;17.17;100.00;101505.44;6198937;28;20050;-79
2021/08/28 12:31:19;;;;;;;1.48;0.70;;;;;;;16.77;100.00;101514.41;6198908;28;20134;-80
2021/08/28 12:34:21;;;;;;;1.73;0.90;;;;;;;16.26;100.00;101515.06;6199546;28;20061;-80
2021/08/28 12:37:24;;;;;;;2.05;0.95;;;;;;;16.11;100.00;101518.69;6199607;28;20532;-79
2021/08/28 12:40:26;;;;;;;1.23;0.98;;;;;;;15.91;100.00;101518.19;6199737;28;20061;-79
2021/08/28 12:43:29;;;;;;;2.60;0.80;;;;;;;15.84;100.00;101518.66;6200679;28;20050;-80
2021/08/28 12:46:30;;;;;;;1.45;1.02;;;;;;;15.82;100.00;101520.56;6202106;28;20501;-80
2021/08/28 12:49:32;;;;;;;0.93;0.85;;;;;;;15.82;100.00;101512.59;6201375;28;20050;-80
2021/08/28 12:52:35;;;;;;;1.10;0.85;;;;;;;15.80;100.00;101510.03;6202084;28;20058;-80
2021/08/28 12:55:37;;;;;;;0.73;0.68;;;;;;;15.81;100.00;101506.47;6205700;28;20420;-80
2021/08/28 12:58:40;;;;;;;0.80;0.60;;;;;;;15.83;100.00;101512.50;6203626;28;20057;-80
2021/08/28 13:01:42;;;;;;;2.88;0.40;;;;;;;15.95;100.00;101508.25;6199388;28;20050;-81
2021/08/28 13:04:43;;;;;;;1.10;0.63;;;;;;;16.11;100.00;101495.69;6208544;28;20057;-80
2021/08/28 13:07:44;;;;;;;0.60;0.57;;;;;;;16.15;100.00;101496.34;6202480;28;20049;-79
2021/08/28 13:10:46;;;;;;;0.82;0.57;;;;;;;16.24;100.00;101488.63;6206546;28;20046;-81
2021/08/28 13:13:53;;;;;;;0.73;0.57;;;;;;;16.72;100.00;101494.34;6216748;28;20512;-80
2021/08/28 13:16:55;;;;;;;0.60;0.47;;;;;;;17.08;100.00;101489.25;6224681;28;20053;-80
2021/08/28 13:20:05;;;;;;;0.82;0.50;;;;;;;17.05;100.00;101484.19;6223840;28;20049;-78
2021/08/28 13:23:08;;;;;;;2.05;0.60;;;;;;;17.01;100.00;101485.34;6224380;28;20512;-80
2021/08/28 13:26:11;;;;;;;0.57;0.57;;;;;;;17.01;100.00;101477.38;6224038;28;20061;-79
2021/08/28 13:29:26;;;;;;;0.45;0.30;;;;;;;17.20;100.00;101475.16;6224524;28;20060;-80
2021/08/28 13:32:28;;;;;;;0.50;0.45;;;;;;;17.48;100.00;101479.38;6223902;28;20060;-79
2021/08/28 13:35:31;;;;;;;0.60;0.60;;;;;;;17.35;100.00;101479.41;6212755;28;20156;-80
2021/08/28 13:38:34;;;;;;;0.75;0.60;;;;;;;17.13;100.00;101490.66;6223470;28;20159;-80
2021/08/28 13:41:35;;;;;;;1.38;0.80;;;;;;;17.04;100.00;101485.16;6201683;28;20046;-80
2021/08/28 13:44:38;;;;;;;0.50;0.50;;;;;;;17.03;100.00;101478.97;6195241;28;20046;-80
2021/08/28 13:47:39;;;;;;;0.80;0.70;;;;;;;17.01;100.00;101474.72;6197683;28;20145;-79
2021/08/28 13:50:40;;;;;;;0.80;0.60;;;;;;;17.01;100.00;101470.25;6197850;28;20038;-80
2021/08/28 13:53:42;;;;;;;0.75;0.75;;;;;;;17.04;100.00;101479.84;6198861;28;20054;-78
2021/08/28 13:56:43;;;;;;;0.60;0.60;;;;;;;16.86;100.00;101474.81;6197956;28;20053;-79
2021/08/28 13:59:46;;;;;;;1.00;0.73;;;;;;;16.84;100.00;101476.72;6192174;28;20378;-78
2021/08/28 14:02:47;;;;;;;0.88;0.80;;;;;;;16.74;100.00;101478.31;6197983;28;20122;-78